sensor_id;sensor_type;location;lat;lon;timestamp;temperature;humidity
70151;DHT22;57517;43.562;19.540;2024-02-23T00:00:35;256.90;1587.20
70151;DHT22;57517;43.562;19.540;2024-02-23T00:03:00;256.90;1561.60
70151;DHT22;57517;43.562;19.540;2024-02-23T00:05:26;256.90;1536.00
70151;DHT22;57517;43.562;19.540;2024-02-23T00:07:52;281.70;1561.60
70151;DHT22;57517;43.562;19.540;2024-02-23T00:10:18;281.70;1536.00
70151;DHT22;57517;43.562;19.540;2024-02-23T00:12:43;281.80;1536.00
70151;DHT22;57517;43.562;19.540;2024-02-23T00:15:10;281.80;1536.00
70151;DHT22;57517;43.562;19.540;2024-02-23T00:17:35;281.90;1536.00
70151;DHT22;57517;43.562;19.540;2024-02-23T00:20:01;282.00;1536.00
70151;DHT22;57517;43.562;19.540;2024-02-23T00:22:27;282.00;1536.00
70151;DHT22;57517;43.562;19.540;2024-02-23T00:24:53;281.80;1612.80
70151;DHT22;57517;43.562;19.540;2024-02-23T00:27:19;281.70;1638.40
70151;DHT22;57517;43.562;19.540;2024-02-23T00:29:44;281.70;1612.80
70151;DHT22;57517;43.562;19.540;2024-02-23T00:32:10;281.80;1612.80
70151;DHT22;57517;43.562;19.540;2024-02-23T00:34:36;281.90;1587.20
70151;DHT22;57517;43.562;19.540;2024-02-23T00:37:02;281.90;1561.60
70151;DHT22;57517;43.562;19.540;2024-02-23T00:39:29;281.80;1587.20
70151;DHT22;57517;43.562;19.540;2024-02-23T00:41:54;281.70;1612.80
70151;DHT22;57517;43.562;19.540;2024-02-23T00:44:20;281.70;1587.20
70151;DHT22;57517;43.562;19.540;2024-02-23T00:46:46;281.80;1587.20
70151;DHT22;57517;43.562;19.540;2024-02-23T00:49:12;281.80;1587.20
70151;DHT22;57517;43.562;19.540;2024-02-23T00:51:38;281.90;1587.20
70151;DHT22;57517;43.562;19.540;2024-02-23T00:54:03;281.90;1561.60
70151;DHT22;57517;43.562;19.540;2024-02-23T00:56:29;281.90;1561.60
70151;DHT22;57517;43.562;19.540;2024-02-23T00:58:55;282.10;1561.60
70151;DHT22;57517;43.562;19.540;2024-02-23T01:01:21;281.90;1587.20
70151;DHT22;57517;43.562;19.540;2024-02-23T01:03:46;282.00;1587.20
70151;DHT22;57517;43.562;19.540;2024-02-23T01:06:12;281.90;1612.80
70151;DHT22;57517;43.562;19.540;2024-02-23T01:08:38;281.90;1612.80
70151;DHT22;57517;43.562;19.540;2024-02-23T01:11:05;281.90;1612.80
70151;DHT22;57517;43.562;19.540;2024-02-23T01:13:31;282.00;1587.20
70151;DHT22;57517;43.562;19.540;2024-02-23T01:15:57;282.00;1587.20
70151;DHT22;57517;43.562;19.540;2024-02-23T01:18:22;282.00;1612.80
70151;DHT22;57517;43.562;19.540;2024-02-23T01:20:48;282.00;1587.20
70151;DHT22;57517;43.562;19.540;2024-02-23T01:23:14;282.00;1587.20
70151;DHT22;57517;43.562;19.540;2024-02-23T01:25:40;282.00;1587.20
70151;DHT22;57517;43.562;19.540;2024-02-23T01:28:06;282.10;1587.20
70151;DHT22;57517;43.562;19.540;2024-02-23T01:30:32;282.20;1587.20
70151;DHT22;57517;43.562;19.540;2024-02-23T01:32:58;282.10;1587.20
70151;DHT22;57517;43.562;19.540;2024-02-23T01:35:23;282.20;1587.20
70151;DHT22;57517;43.562;19.540;2024-02-23T01:37:49;282.20;1587.20
70151;DHT22;57517;43.562;19.540;2024-02-23T01:40:15;282.00;1587.20
70151;DHT22;57517;43.562;19.540;2024-02-23T01:42:41;282.20;1587.20
70151;DHT22;57517;43.562;19.540;2024-02-23T01:45:07;282.20;1587.20
70151;DHT22;57517;43.562;19.540;2024-02-23T01:47:33;282.20;1587.20
70151;DHT22;57517;43.562;19.540;2024-02-23T01:49:59;282.10;1587.20
70151;DHT22;57517;43.562;19.540;2024-02-23T01:52:25;282.10;1587.20
70151;DHT22;57517;43.562;19.540;2024-02-23T01:54:52;282.20;1587.20
70151;DHT22;57517;43.562;19.540;2024-02-23T01:57:18;282.30;1587.20
70151;DHT22;57517;43.562;19.540;2024-02-23T01:59:44;282.10;1587.20
70151;DHT22;57517;43.562;19.540;2024-02-23T02:02:10;282.10;1638.40
70151;DHT22;57517;43.562;19.540;2024-02-23T02:04:36;282.10;1638.40
70151;DHT22;57517;43.562;19.540;2024-02-23T02:07:02;282.20;1587.20
70151;DHT22;57517;43.562;19.540;2024-02-23T02:09:27;282.20;1587.20
70151;DHT22;57517;43.562;19.540;2024-02-23T02:11:53;281.90;1638.40
70151;DHT22;57517;43.562;19.540;2024-02-23T02:14:19;282.00;1612.80
70151;DHT22;57517;43.562;19.540;2024-02-23T02:16:45;282.10;1587.20
70151;DHT22;57517;43.562;19.540;2024-02-23T02:19:12;282.20;1587.20
70151;DHT22;57517;43.562;19.540;2024-02-23T02:21:39;282.40;1587.20
70151;DHT22;57517;43.562;19.540;2024-02-23T02:24:06;282.40;1587.20
70151;DHT22;57517;43.562;19.540;2024-02-23T02:26:32;282.40;1587.20
70151;DHT22;57517;43.562;19.540;2024-02-23T02:28:58;282.40;1587.20
70151;DHT22;57517;43.562;19.540;2024-02-23T02:31:24;282.30;1561.60
70151;DHT22;57517;43.562;19.540;2024-02-23T02:33:50;282.30;1561.60
70151;DHT22;57517;43.562;19.540;2024-02-23T02:36:16;282.40;1561.60
70151;DHT22;57517;43.562;19.540;2024-02-23T02:38:41;282.50;1561.60
70151;DHT22;57517;43.562;19.540;2024-02-23T02:41:08;282.50;1561.60
70151;DHT22;57517;43.562;19.540;2024-02-23T02:43:34;282.50;1561.60
70151;DHT22;57517;43.562;19.540;2024-02-23T02:46:00;307.20;1587.20
70151;DHT22;57517;43.562;19.540;2024-02-23T02:48:26;282.50;1536.00
70151;DHT22;57517;43.562;19.540;2024-02-23T02:50:51;282.50;1536.00
70151;DHT22;57517;43.562;19.540;2024-02-23T02:53:18;282.50;1536.00
70151;DHT22;57517;43.562;19.540;2024-02-23T02:55:44;282.40;1561.60
70151;DHT22;57517;43.562;19.540;2024-02-23T02:58:13;282.40;1561.60
70151;DHT22;57517;43.562;19.540;2024-02-23T03:00:39;282.50;1536.00
70151;DHT22;57517;43.562;19.540;2024-02-23T03:03:06;307.20;1561.60
70151;DHT22;57517;43.562;19.540;2024-02-23T03:05:31;307.20;1561.60
70151;DHT22;57517;43.562;19.540;2024-02-23T03:07:57;307.20;1587.20
70151;DHT22;57517;43.562;19.540;2024-02-23T03:10:23;282.50;1561.60
70151;DHT22;57517;43.562;19.540;2024-02-23T03:12:49;282.50;1536.00
70151;DHT22;57517;43.562;19.540;2024-02-23T03:15:15;282.40;1561.60
70151;DHT22;57517;43.562;19.540;2024-02-23T03:17:40;282.50;1536.00
70151;DHT22;57517;43.562;19.540;2024-02-23T03:20:06;282.50;1536.00
70151;DHT22;57517;43.562;19.540;2024-02-23T03:22:37;307.20;1561.60
70151;DHT22;57517;43.562;19.540;2024-02-23T03:25:03;282.50;1561.60
70151;DHT22;57517;43.562;19.540;2024-02-23T03:27:38;282.50;1536.00
70151;DHT22;57517;43.562;19.540;2024-02-23T03:30:05;307.20;1536.00
70151;DHT22;57517;43.562;19.540;2024-02-23T03:32:31;307.20;1536.00
70151;DHT22;57517;43.562;19.540;2024-02-23T03:35:02;307.20;1536.00
70151;DHT22;57517;43.562;19.540;2024-02-23T03:37:29;307.30;1536.00
70151;DHT22;57517;43.562;19.540;2024-02-23T03:39:54;307.30;1536.00
70151;DHT22;57517;43.562;19.540;2024-02-23T03:42:20;307.30;1536.00
70151;DHT22;57517;43.562;19.540;2024-02-23T03:44:46;307.30;1536.00
70151;DHT22;57517;43.562;19.540;2024-02-23T03:47:12;307.40;1536.00
70151;DHT22;57517;43.562;19.540;2024-02-23T03:49:38;307.40;1536.00
70151;DHT22;57517;43.562;19.540;2024-02-23T03:52:04;307.40;1536.00
70151;DHT22;57517;43.562;19.540;2024-02-23T03:54:30;307.40;1536.00
70151;DHT22;57517;43.562;19.540;2024-02-23T03:56:57;307.40;1536.00
70151;DHT22;57517;43.562;19.540;2024-02-23T03:59:23;307.40;1536.00
70151;DHT22;57517;43.562;19.540;2024-02-23T04:01:49;307.40;1536.00
70151;DHT22;57517;43.562;19.540;2024-02-23T04:04:15;307.40;1536.00
70151;DHT22;57517;43.562;19.540;2024-02-23T04:06:41;307.40;1536.00
70151;DHT22;57517;43.562;19.540;2024-02-23T04:09:07;307.40;1536.00
70151;DHT22;57517;43.562;19.540;2024-02-23T04:11:34;307.40;1536.00
70151;DHT22;57517;43.562;19.540;2024-02-23T04:14:00;307.40;1536.00
70151;DHT22;57517;43.562;19.540;2024-02-23T04:16:26;307.40;1536.00
70151;DHT22;57517;43.562;19.540;2024-02-23T04:18:53;307.40;1536.00
70151;DHT22;57517;43.562;19.540;2024-02-23T04:21:20;307.40;1536.00
70151;DHT22;57517;43.562;19.540;2024-02-23T04:23:45;307.40;1561.60
70151;DHT22;57517;43.562;19.540;2024-02-23T04:26:11;307.40;1561.60
70151;DHT22;57517;43.562;19.540;2024-02-23T04:28:41;307.40;1561.60
70151;DHT22;57517;43.562;19.540;2024-02-23T04:31:08;307.40;1561.60
70151;DHT22;57517;43.562;19.540;2024-02-23T04:33:35;307.40;1561.60
70151;DHT22;57517;43.562;19.540;2024-02-23T04:36:02;307.40;1561.60
70151;DHT22;57517;43.562;19.540;2024-02-23T04:38:29;307.40;1561.60
70151;DHT22;57517;43.562;19.540;2024-02-23T04:40:55;307.50;1561.60
70151;DHT22;57517;43.562;19.540;2024-02-23T04:43:22;307.50;1561.60
70151;DHT22;57517;43.562;19.540;2024-02-23T04:45:48;307.50;1561.60
70151;DHT22;57517;43.562;19.540;2024-02-23T04:48:14;307.50;1561.60
70151;DHT22;57517;43.562;19.540;2024-02-23T04:50:40;307.60;1561.60
70151;DHT22;57517;43.562;19.540;2024-02-23T04:53:05;307.50;1561.60
70151;DHT22;57517;43.562;19.540;2024-02-23T04:55:31;307.50;1561.60
70151;DHT22;57517;43.562;19.540;2024-02-23T04:57:57;307.50;1561.60
70151;DHT22;57517;43.562;19.540;2024-02-23T05:00:23;307.60;1561.60
70151;DHT22;57517;43.562;19.540;2024-02-23T05:02:49;307.60;1561.60
70151;DHT22;57517;43.562;19.540;2024-02-23T05:05:15;307.60;1561.60
70151;DHT22;57517;43.562;19.540;2024-02-23T05:07:41;307.60;1561.60
70151;DHT22;57517;43.562;19.540;2024-02-23T05:10:07;307.60;1561.60
70151;DHT22;57517;43.562;19.540;2024-02-23T05:12:33;307.60;1561.60
70151;DHT22;57517;43.562;19.540;2024-02-23T05:14:58;307.60;1587.20
70151;DHT22;57517;43.562;19.540;2024-02-23T05:17:24;307.60;1561.60
70151;DHT22;57517;43.562;19.540;2024-02-23T05:19:50;307.60;1587.20
70151;DHT22;57517;43.562;19.540;2024-02-23T05:22:16;307.60;1587.20
70151;DHT22;57517;43.562;19.540;2024-02-23T05:24:42;307.60;1587.20
70151;DHT22;57517;43.562;19.540;2024-02-23T05:27:09;307.60;1587.20
70151;DHT22;57517;43.562;19.540;2024-02-23T05:29:35;307.60;1587.20
70151;DHT22;57517;43.562;19.540;2024-02-23T05:32:01;307.70;1587.20
70151;DHT22;57517;43.562;19.540;2024-02-23T05:34:27;307.80;1561.60
70151;DHT22;57517;43.562;19.540;2024-02-23T05:36:52;307.80;1587.20
70151;DHT22;57517;43.562;19.540;2024-02-23T05:39:18;307.70;1587.20
70151;DHT22;57517;43.562;19.540;2024-02-23T05:41:44;307.80;1587.20
70151;DHT22;57517;43.562;19.540;2024-02-23T05:44:10;307.80;1587.20
70151;DHT22;57517;43.562;19.540;2024-02-23T05:46:36;307.70;1587.20
70151;DHT22;57517;43.562;19.540;2024-02-23T05:49:03;307.80;1587.20
70151;DHT22;57517;43.562;19.540;2024-02-23T05:51:30;307.80;1587.20
70151;DHT22;57517;43.562;19.540;2024-02-23T05:53:56;307.80;1587.20
70151;DHT22;57517;43.562;19.540;2024-02-23T05:56:22;307.80;1587.20
70151;DHT22;57517;43.562;19.540;2024-02-23T05:58:49;307.80;1587.20
70151;DHT22;57517;43.562;19.540;2024-02-23T06:01:15;307.80;1587.20
70151;DHT22;57517;43.562;19.540;2024-02-23T06:03:41;307.90;1587.20
70151;DHT22;57517;43.562;19.540;2024-02-23T06:06:07;308.00;1587.20
70151;DHT22;57517;43.562;19.540;2024-02-23T06:08:34;307.90;1587.20
70151;DHT22;57517;43.562;19.540;2024-02-23T06:11:00;307.90;1587.20
70151;DHT22;57517;43.562;19.540;2024-02-23T06:13:26;307.70;1612.80
70151;DHT22;57517;43.562;19.540;2024-02-23T06:15:52;307.70;1612.80
70151;DHT22;57517;43.562;19.540;2024-02-23T06:18:18;307.70;1612.80
70151;DHT22;57517;43.562;19.540;2024-02-23T06:20:43;307.70;1612.80
70151;DHT22;57517;43.562;19.540;2024-02-23T06:23:09;307.70;1612.80
70151;DHT22;57517;43.562;19.540;2024-02-23T06:25:35;307.80;1612.80
70151;DHT22;57517;43.562;19.540;2024-02-23T06:28:01;307.90;1612.80
70151;DHT22;57517;43.562;19.540;2024-02-23T06:30:27;307.90;1587.20
70151;DHT22;57517;43.562;19.540;2024-02-23T06:32:52;308.00;1612.80
70151;DHT22;57517;43.562;19.540;2024-02-23T06:35:19;308.10;1612.80
70151;DHT22;57517;43.562;19.540;2024-02-23T06:37:44;308.10;1587.20
70151;DHT22;57517;43.562;19.540;2024-02-23T06:40:10;332.80;1638.40
70151;DHT22;57517;43.562;19.540;2024-02-23T06:42:36;332.80;1689.60
70151;DHT22;57517;43.562;19.540;2024-02-23T06:45:03;333.00;1689.60
70151;DHT22;57517;43.562;19.540;2024-02-23T06:47:28;332.80;1561.60
70151;DHT22;57517;43.562;19.540;2024-02-23T06:49:55;308.10;1612.80
70151;DHT22;57517;43.562;19.540;2024-02-23T06:52:22;308.00;1587.20
70151;DHT22;57517;43.562;19.540;2024-02-23T06:54:48;308.10;1587.20
70151;DHT22;57517;43.562;19.540;2024-02-23T06:57:14;332.80;1612.80
70151;DHT22;57517;43.562;19.540;2024-02-23T06:59:40;333.00;1664.00
70151;DHT22;57517;43.562;19.540;2024-02-23T07:02:06;333.00;1587.20
70151;DHT22;57517;43.562;19.540;2024-02-23T07:04:32;333.10;1587.20
70151;DHT22;57517;43.562;19.540;2024-02-23T07:06:59;333.20;1587.20
70151;DHT22;57517;43.562;19.540;2024-02-23T07:09:25;333.20;1587.20
70151;DHT22;57517;43.562;19.540;2024-02-23T07:11:50;333.00;1561.60
70151;DHT22;57517;43.562;19.540;2024-02-23T07:14:16;333.00;1561.60
70151;DHT22;57517;43.562;19.540;2024-02-23T07:16:43;333.00;1510.40
70151;DHT22;57517;43.562;19.540;2024-02-23T07:19:09;333.10;1536.00
70151;DHT22;57517;43.562;19.540;2024-02-23T07:21:35;333.20;1484.80
70151;DHT22;57517;43.562;19.540;2024-02-23T07:24:01;333.20;1484.80
70151;DHT22;57517;43.562;19.540;2024-02-23T07:26:27;333.30;1510.40
70151;DHT22;57517;43.562;19.540;2024-02-23T07:28:55;333.30;1510.40
70151;DHT22;57517;43.562;19.540;2024-02-23T07:31:21;333.30;1510.40
70151;DHT22;57517;43.562;19.540;2024-02-23T07:33:46;333.20;1484.80
70151;DHT22;57517;43.562;19.540;2024-02-23T07:36:16;333.30;1484.80
70151;DHT22;57517;43.562;19.540;2024-02-23T07:38:42;333.30;1484.80
70151;DHT22;57517;43.562;19.540;2024-02-23T07:41:10;333.30;1484.80
70151;DHT22;57517;43.562;19.540;2024-02-23T07:43:36;333.40;1510.40
70151;DHT22;57517;43.562;19.540;2024-02-23T07:46:02;333.50;1510.40
70151;DHT22;57517;43.562;19.540;2024-02-23T07:48:30;333.50;1459.20
70151;DHT22;57517;43.562;19.540;2024-02-23T07:50:56;333.40;1484.80
70151;DHT22;57517;43.562;19.540;2024-02-23T07:53:22;333.40;1484.80
70151;DHT22;57517;43.562;19.540;2024-02-23T07:55:47;333.40;1484.80
70151;DHT22;57517;43.562;19.540;2024-02-23T07:58:13;333.50;1484.80
70151;DHT22;57517;43.562;19.540;2024-02-23T08:00:39;333.70;1433.60
70151;DHT22;57517;43.562;19.540;2024-02-23T08:03:05;333.60;1459.20
70151;DHT22;57517;43.562;19.540;2024-02-23T08:05:31;333.60;1459.20
70151;DHT22;57517;43.562;19.540;2024-02-23T08:07:58;333.70;1459.20
70151;DHT22;57517;43.562;19.540;2024-02-23T08:10:24;333.70;1510.40
70151;DHT22;57517;43.562;19.540;2024-02-23T08:12:51;358.40;1433.60
70151;DHT22;57517;43.562;19.540;2024-02-23T08:15:17;333.70;1408.00
70151;DHT22;57517;43.562;19.540;2024-02-23T08:17:42;358.40;1484.80
70151;DHT22;57517;43.562;19.540;2024-02-23T08:20:08;358.40;1433.60
70151;DHT22;57517;43.562;19.540;2024-02-23T08:22:34;358.40;1459.20
70151;DHT22;57517;43.562;19.540;2024-02-23T08:25:00;358.40;1433.60
70151;DHT22;57517;43.562;19.540;2024-02-23T08:27:26;358.40;1433.60
70151;DHT22;57517;43.562;19.540;2024-02-23T08:29:52;358.50;1433.60
70151;DHT22;57517;43.562;19.540;2024-02-23T08:32:18;358.50;1433.60
70151;DHT22;57517;43.562;19.540;2024-02-23T08:34:44;358.50;1408.00
70151;DHT22;57517;43.562;19.540;2024-02-23T08:37:10;358.50;1433.60
70151;DHT22;57517;43.562;19.540;2024-02-23T08:39:36;358.50;1408.00
70151;DHT22;57517;43.562;19.540;2024-02-23T08:42:02;358.60;1459.20
70151;DHT22;57517;43.562;19.540;2024-02-23T08:44:28;358.70;1433.60
70151;DHT22;57517;43.562;19.540;2024-02-23T08:46:54;358.70;1408.00
70151;DHT22;57517;43.562;19.540;2024-02-23T08:49:20;358.80;1408.00
70151;DHT22;57517;43.562;19.540;2024-02-23T08:51:46;358.80;1408.00
70151;DHT22;57517;43.562;19.540;2024-02-23T08:54:11;358.80;1382.40
70151;DHT22;57517;43.562;19.540;2024-02-23T08:56:38;358.80;1382.40
70151;DHT22;57517;43.562;19.540;2024-02-23T08:59:08;358.90;1331.20
70151;DHT22;57517;43.562;19.540;2024-02-23T09:01:37;358.90;1305.60
70151;DHT22;57517;43.562;19.540;2024-02-23T09:04:03;359.00;1331.20
70151;DHT22;57517;43.562;19.540;2024-02-23T09:06:29;359.10;1280.00
70151;DHT22;57517;43.562;19.540;2024-02-23T09:08:54;359.10;1280.00
70151;DHT22;57517;43.562;19.540;2024-02-23T09:11:20;359.20;1305.60
70151;DHT22;57517;43.562;19.540;2024-02-23T09:13:46;359.20;1305.60
70151;DHT22;57517;43.562;19.540;2024-02-23T09:16:12;359.10;1280.00
70151;DHT22;57517;43.562;19.540;2024-02-23T09:18:38;359.20;1280.00
70151;DHT22;57517;43.562;19.540;2024-02-23T09:21:04;359.30;1254.40
70151;DHT22;57517;43.562;19.540;2024-02-23T09:23:29;384.00;1254.40
70151;DHT22;57517;43.562;19.540;2024-02-23T09:25:55;359.30;1228.80
70151;DHT22;57517;43.562;19.540;2024-02-23T09:28:21;384.10;1254.40
70151;DHT22;57517;43.562;19.540;2024-02-23T09:30:47;384.10;1203.20
70151;DHT22;57517;43.562;19.540;2024-02-23T09:33:12;384.10;1228.80
70151;DHT22;57517;43.562;19.540;2024-02-23T09:35:38;384.10;1203.20
70151;DHT22;57517;43.562;19.540;2024-02-23T09:38:04;384.10;1203.20
70151;DHT22;57517;43.562;19.540;2024-02-23T09:40:30;384.20;1228.80
70151;DHT22;57517;43.562;19.540;2024-02-23T09:42:57;384.30;1203.20
70151;DHT22;57517;43.562;19.540;2024-02-23T09:45:27;384.40;1228.80
70151;DHT22;57517;43.562;19.540;2024-02-23T09:47:54;384.40;1203.20
70151;DHT22;57517;43.562;19.540;2024-02-23T09:50:23;384.40;1203.20
70151;DHT22;57517;43.562;19.540;2024-02-23T09:52:49;384.40;1228.80
70151;DHT22;57517;43.562;19.540;2024-02-23T09:55:21;384.20;1203.20
70151;DHT22;57517;43.562;19.540;2024-02-23T09:57:48;384.30;1203.20
70151;DHT22;57517;43.562;19.540;2024-02-23T10:00:17;384.30;1203.20
70151;DHT22;57517;43.562;19.540;2024-02-23T10:02:43;384.40;1177.60
70151;DHT22;57517;43.562;19.540;2024-02-23T10:05:10;384.50;1177.60
70151;DHT22;57517;43.562;19.540;2024-02-23T10:07:37;384.70;1177.60
70151;DHT22;57517;43.562;19.540;2024-02-23T10:10:07;384.80;1152.00
70151;DHT22;57517;43.562;19.540;2024-02-23T10:12:34;384.90;1152.00
70151;DHT22;57517;43.562;19.540;2024-02-23T10:15:01;409.70;1177.60
70151;DHT22;57517;43.562;19.540;2024-02-23T10:17:30;409.80;1152.00
70151;DHT22;57517;43.562;19.540;2024-02-23T10:19:56;410.10;1152.00
70151;DHT22;57517;43.562;19.540;2024-02-23T10:22:23;410.30;1177.60
70151;DHT22;57517;43.562;19.540;2024-02-23T10:24:51;410.40;1177.60
70151;DHT22;57517;43.562;19.540;2024-02-23T10:27:17;410.40;1152.00
70151;DHT22;57517;43.562;19.540;2024-02-23T10:29:43;410.30;1152.00
70151;DHT22;57517;43.562;19.540;2024-02-23T10:32:13;410.40;1152.00
70151;DHT22;57517;43.562;19.540;2024-02-23T10:34:43;435.40;1152.00
70151;DHT22;57517;43.562;19.540;2024-02-23T10:37:09;435.60;1126.40
70151;DHT22;57517;43.562;19.540;2024-02-23T10:39:38;435.70;1126.40
70151;DHT22;57517;43.562;19.540;2024-02-23T10:42:08;435.70;1126.40
70151;DHT22;57517;43.562;19.540;2024-02-23T10:44:34;435.30;1152.00
70151;DHT22;57517;43.562;19.540;2024-02-23T10:47:01;435.40;1126.40
70151;DHT22;57517;43.562;19.540;2024-02-23T10:49:28;435.50;1152.00
70151;DHT22;57517;43.562;19.540;2024-02-23T10:51:55;435.50;1100.80
70151;DHT22;57517;43.562;19.540;2024-02-23T10:54:22;435.50;1100.80
70151;DHT22;57517;43.562;19.540;2024-02-23T10:56:50;435.60;1100.80
70151;DHT22;57517;43.562;19.540;2024-02-23T10:59:17;435.20;1100.80
70151;DHT22;57517;43.562;19.540;2024-02-23T11:01:51;410.50;1126.40
70151;DHT22;57517;43.562;19.540;2024-02-23T11:04:20;435.20;1126.40
70151;DHT22;57517;43.562;19.540;2024-02-23T11:06:50;410.50;1126.40
70151;DHT22;57517;43.562;19.540;2024-02-23T11:09:17;435.40;1126.40
70151;DHT22;57517;43.562;19.540;2024-02-23T11:11:57;435.40;1100.80
70151;DHT22;57517;43.562;19.540;2024-02-23T11:14:34;435.30;1126.40
70151;DHT22;57517;43.562;19.540;2024-02-23T11:17:01;435.40;1100.80
70151;DHT22;57517;43.562;19.540;2024-02-23T11:19:37;410.50;1126.40
70151;DHT22;57517;43.562;19.540;2024-02-23T11:22:03;410.30;1152.00
70151;DHT22;57517;43.562;19.540;2024-02-23T11:24:30;410.50;1126.40
70151;DHT22;57517;43.562;19.540;2024-02-23T11:27:00;410.30;1152.00
70151;DHT22;57517;43.562;19.540;2024-02-23T11:29:33;410.50;1152.00
70151;DHT22;57517;43.562;19.540;2024-02-23T11:32:00;410.30;1152.00
70151;DHT22;57517;43.562;19.540;2024-02-23T11:34:30;410.30;1126.40
70151;DHT22;57517;43.562;19.540;2024-02-23T11:36:56;410.10;1152.00
70151;DHT22;57517;43.562;19.540;2024-02-23T11:39:23;410.10;1152.00
70151;DHT22;57517;43.562;19.540;2024-02-23T11:41:49;410.00;1203.20
70151;DHT22;57517;43.562;19.540;2024-02-23T11:44:16;410.10;1177.60
70151;DHT22;57517;43.562;19.540;2024-02-23T11:46:44;410.00;1203.20
70151;DHT22;57517;43.562;19.540;2024-02-23T11:49:14;410.30;1203.20
70151;DHT22;57517;43.562;19.540;2024-02-23T11:51:41;410.30;1203.20
70151;DHT22;57517;43.562;19.540;2024-02-23T11:54:07;410.30;1177.60
70151;DHT22;57517;43.562;19.540;2024-02-23T11:56:33;410.00;1177.60
70151;DHT22;57517;43.562;19.540;2024-02-23T11:58:59;409.90;1177.60
70151;DHT22;57517;43.562;19.540;2024-02-23T12:01:25;410.00;1177.60
70151;DHT22;57517;43.562;19.540;2024-02-23T12:03:50;410.00;1203.20
70151;DHT22;57517;43.562;19.540;2024-02-23T12:06:17;409.80;1177.60
70151;DHT22;57517;43.562;19.540;2024-02-23T12:08:43;409.70;1203.20
70151;DHT22;57517;43.562;19.540;2024-02-23T12:11:11;409.70;1177.60
70151;DHT22;57517;43.562;19.540;2024-02-23T12:13:39;384.90;1152.00
70151;DHT22;57517;43.562;19.540;2024-02-23T12:16:07;384.90;1152.00
70151;DHT22;57517;43.562;19.540;2024-02-23T12:18:34;409.60;1177.60
70151;DHT22;57517;43.562;19.540;2024-02-23T12:23:27;409.80;1152.00
70151;DHT22;57517;43.562;19.540;2024-02-23T12:25:59;410.00;1177.60
70151;DHT22;57517;43.562;19.540;2024-02-23T12:28:26;410.00;1152.00
70151;DHT22;57517;43.562;19.540;2024-02-23T12:31:04;410.10;1152.00
70151;DHT22;57517;43.562;19.540;2024-02-23T12:33:38;410.00;1152.00
70151;DHT22;57517;43.562;19.540;2024-02-23T12:36:05;410.00;1152.00
70151;DHT22;57517;43.562;19.540;2024-02-23T12:38:32;410.10;1152.00
70151;DHT22;57517;43.562;19.540;2024-02-23T12:40:59;410.10;1152.00
70151;DHT22;57517;43.562;19.540;2024-02-23T12:43:25;409.90;1177.60
70151;DHT22;57517;43.562;19.540;2024-02-23T12:45:52;409.80;1203.20
70151;DHT22;57517;43.562;19.540;2024-02-23T12:48:18;409.80;1228.80
70151;DHT22;57517;43.562;19.540;2024-02-23T12:50:45;409.70;1203.20
70151;DHT22;57517;43.562;19.540;2024-02-23T12:53:30;409.70;1228.80
70151;DHT22;57517;43.562;19.540;2024-02-23T12:56:07;409.80;1228.80
70151;DHT22;57517;43.562;19.540;2024-02-23T12:58:38;409.80;1203.20
70151;DHT22;57517;43.562;19.540;2024-02-23T13:01:04;409.70;1228.80
70151;DHT22;57517;43.562;19.540;2024-02-23T13:03:32;409.60;1228.80
70151;DHT22;57517;43.562;19.540;2024-02-23T13:05:58;409.60;1254.40
70151;DHT22;57517;43.562;19.540;2024-02-23T13:08:25;384.90;1203.20
70151;DHT22;57517;43.562;19.540;2024-02-23T13:10:51;384.90;1203.20
70151;DHT22;57517;43.562;19.540;2024-02-23T13:13:18;384.90;1228.80
70151;DHT22;57517;43.562;19.540;2024-02-23T13:15:44;384.90;1228.80
70151;DHT22;57517;43.562;19.540;2024-02-23T13:18:11;384.70;1254.40
70151;DHT22;57517;43.562;19.540;2024-02-23T13:20:37;384.80;1228.80
70151;DHT22;57517;43.562;19.540;2024-02-23T13:23:04;384.90;1254.40
70151;DHT22;57517;43.562;19.540;2024-02-23T13:25:30;384.90;1254.40
70151;DHT22;57517;43.562;19.540;2024-02-23T13:27:56;409.60;1280.00
70151;DHT22;57517;43.562;19.540;2024-02-23T13:30:23;409.60;1254.40
70151;DHT22;57517;43.562;19.540;2024-02-23T13:32:49;409.70;1228.80
70151;DHT22;57517;43.562;19.540;2024-02-23T13:35:15;409.70;1228.80
70151;DHT22;57517;43.562;19.540;2024-02-23T13:37:42;409.70;1228.80
70151;DHT22;57517;43.562;19.540;2024-02-23T13:40:09;409.70;1203.20
70151;DHT22;57517;43.562;19.540;2024-02-23T13:42:36;409.80;1203.20
70151;DHT22;57517;43.562;19.540;2024-02-23T13:45:05;409.80;1228.80
70151;DHT22;57517;43.562;19.540;2024-02-23T13:47:32;409.70;1228.80
70151;DHT22;57517;43.562;19.540;2024-02-23T13:49:58;409.60;1254.40
70151;DHT22;57517;43.562;19.540;2024-02-23T13:52:24;409.60;1254.40
70151;DHT22;57517;43.562;19.540;2024-02-23T13:54:50;384.90;1228.80
70151;DHT22;57517;43.562;19.540;2024-02-23T13:57:16;409.60;1254.40
70151;DHT22;57517;43.562;19.540;2024-02-23T13:59:41;384.90;1203.20
70151;DHT22;57517;43.562;19.540;2024-02-23T14:02:07;409.60;1254.40
70151;DHT22;57517;43.562;19.540;2024-02-23T14:04:33;409.70;1228.80
70151;DHT22;57517;43.562;19.540;2024-02-23T14:06:59;409.70;1228.80
70151;DHT22;57517;43.562;19.540;2024-02-23T14:09:25;409.70;1254.40
70151;DHT22;57517;43.562;19.540;2024-02-23T14:11:51;409.70;1228.80
70151;DHT22;57517;43.562;19.540;2024-02-23T14:14:17;409.80;1254.40
70151;DHT22;57517;43.562;19.540;2024-02-23T14:16:43;409.80;1254.40
70151;DHT22;57517;43.562;19.540;2024-02-23T14:19:08;409.80;1254.40
70151;DHT22;57517;43.562;19.540;2024-02-23T14:21:35;410.00;1228.80
70151;DHT22;57517;43.562;19.540;2024-02-23T14:24:02;409.80;1254.40
70151;DHT22;57517;43.562;19.540;2024-02-23T14:26:28;409.80;1254.40
70151;DHT22;57517;43.562;19.540;2024-02-23T14:28:54;409.70;1305.60
70151;DHT22;57517;43.562;19.540;2024-02-23T14:31:20;409.70;1280.00
70151;DHT22;57517;43.562;19.540;2024-02-23T14:33:46;409.60;1280.00